AirNav   Everest Fuels
 
 644 users online  

KOZR Cairns Army Airfield (Fort Rucker)
Fort Rucker/Ozark, Alabama, USA

GOING TO FORT RUCKER/OZARK?


FAA INFORMATION EFFECTIVE 16 JUNE 2022

Location

FAA Identifier: OZR
Lat/Long: 31-16-32.7900N 085-42-48.0600W
31-16.546500N 085-42.801000W
31.2757750,-85.7133500
(estimated)
Elevation: 301 ft. / 92 m (estimated)
Variation: 03W (2010)
From city: 6 miles S of central business district of the associated city
Time zone: UTC -5 (UTC -6 during Standard Time)
Zip code: 36322

Airport Operations

Airport use: Private use. Permission required prior to landing
Activation date: 10/1943
Control tower: yes
ARTCC: JACKSONVILLE CENTER
FSS: ANNISTON FLIGHT SERVICE STATION
NOTAMs facility: OZR (NOTAM-D service available)
Attendance: CONTINUOUS
Segmented circle: no
Lights: SS-SR
Beacon: white-white-green (lighted military airport)
Operates sunset to sunrise.

Airport Communications

CTAF: 135.2
ATIS: 111.2 316.15
CAIRNS GROUND: 121.9 288.25 [1200-0700Z++MON-FRI]
CAIRNS TOWER: 135.2 248.55 111.2T 122.5R [1200-0700Z++MON-FRI]
CAIRNS APPROACH: 121.1 ;341-020 125.4 ;021-120 133.45 ;220-340 133.75 ;121-219 239.275 ;220-340 270.35 ;121-219 319.25 ;341-020 327.125 ;021-120 336.3 ;220-340 [24 HRS TUE-SAT,1200-0500Z++ SUN-MON.]
JAX ARTCC APPROACH: 122.5R 128.55 229.6
CAIRNS DEPARTURE: 121.1 ;341-020 125.4 ;021-120 133.45 ;220-340 133.75 ;121-219 239.275 ;220-340 270.35 ;121-219 319.25 ;341-020 327.125 ;021-120 336.3 ;220-340 [24 HRS TUE-SAT,1200-0500Z++ SUN-MON.]
CLEARANCE DELIVERY: 118.075 120.325 380.1
EMERG: 121.5 243.0
IC: 133.45 ;220-340 239.275 ;220-340 336.3 ;220-340
OPS: 126.2 371.35
PMSV METRO: 134.1
PTD: 134.1 348.8
RADAR: 125.4 ;021-120 128.55 229.6 327.125 ;021-120
RADAR/P: 242.6
WX AWOS-3PT at EDN (10 nm W): 118.9 (334-347-3524)
WX ASOS at DHN (14 nm E): PHONE 334-983-5999
  • PAR RY 06/24 LCTD LAT 31-16-35.66N LONG 085-42-39.97W.
  • APCH/DEP SVC PRVDD BY JACKSONVILLE ARTCC ON FREQS 134.3/353.5 (DOTHAN RCAG) WHEN CAIRNS APCH/DEP CLSD.
  • PMSV METRO 134.1 REMOTE BRIEFING SVC AVBL BARKSDALE AFB, 26 OWS DSN 331-2651, C 318-529-2651/2652/2653 OR HTTPS://26OWS.US.AF.MIL
  • WHEN TWR CLSD CTC APP/DEP 125.4, 327.125, 135.2, 111.2, 248.55
  • ATCT-ARAC.

Airport Services

Runway Information

Runway 18/36

Dimensions: 5025 x 150 ft. / 1532 x 46 m
Surface: asphalt
Weight bearing capacity: 
PCN 35 /F/A/W/T
Runway edge lights: medium intensity
RUNWAY 18  RUNWAY 36
Latitude: 31-17.075550N31-16.246800N
Longitude: 085-42.756717W085-42.772900W
Elevation: 301.0 ft.295.8 ft.
Traffic pattern: leftleft
Markings: nonprecision, in good conditionprecision, in good condition
Touchdown point: yes, no lightsyes, no lights

Runway 6/24

Dimensions: 4546 x 150 ft. / 1386 x 46 m
Surface: asphalt
Weight bearing capacity: 
PCN 44 /F/A/W/T
Runway edge lights: high intensity
RUNWAY 6  RUNWAY 24
Latitude: 31-16.236617N31-16.603367N
Longitude: 085-43.221917W085-42.460300W
Elevation: 295.8 ft.294.5 ft.
Traffic pattern: leftleft
Markings: precision, in good conditionnonprecision, in good condition
Visual slope indicator: 4-light PAPI on left (2.70 degrees glide path)
Approach lights: MALSR: 1,400 foot medium intensity approach lighting system with runway alignment indicator lights
Touchdown point: yes, no lightsyes, no lights
Instrument approach: ILS/DME

Helipad H1

Dimensions: 50 x 50 ft. / 15 x 15 m
Surface: asphalt
Latitude: 31-16.503095N
Longitude: 085-42.830628W
Elevation: 298.2 ft.
Traffic pattern: leftleft

Helipad H2

Dimensions: 50 x 50 ft. / 15 x 15 m
Surface: asphalt
Latitude: 31-16.181457N
Longitude: 085-42.885668W
Elevation: 293.7 ft.
Traffic pattern: leftleft

Helipad H3

Dimensions: 50 x 50 ft. / 15 x 15 m
Surface: asphalt
Latitude: 31-17.068787N
Longitude: 085-43.117708W
Elevation: 303.4 ft.
Traffic pattern: leftleft

Helipad H4

Dimensions: 50 x 50 ft. / 15 x 15 m
Surface: asphalt
Latitude: 31-17.168063N
Longitude: 085-43.031745W
Elevation: 306.9 ft.
Traffic pattern: leftleft

Helipad H5

Dimensions: 50 x 50 ft. / 15 x 15 m
Surface: asphalt
Latitude: 31-17.135255N
Longitude: 085-42.961393W
Elevation: 308.1 ft.
Traffic pattern: leftleft

Airport Ownership and Management from official FAA records

Ownership: U.S. Army
Owner: US ARMY CAIRNS ARMY AIR FIELD
9325 GUNSTON ROAD
FT BELVOIR, VA 22060
Manager: PAUL MEISSNER (CIVILIAN POC)
Phone 334-255-2680

Additional Remarks

OIL: O-156
CAUTION: POSSIBLE HYDROPLANING DUE TO STANDING WATER ON INT OF RWY 06-24 AND 18-36 FLW RAIN.
CAUTION: INTS STU TRNG.
MISC: ACFT INBD WITH CODES CTC BASE OPS 45 NM OUT. TRAN ACFT REQUIRE DD FORM 1898. A CREW MEMBER MUST REMAIN WITH ACFT DUR REFUEL OPR. DD FORM 1898 AVAILABLE AT BASE OPS SERVICE COUNTER.
SEE FLIP AP/1 FLT HAZ FOR FORT RUCKER AND SUPPLEMENTARY ARPT RMK FOR CAIRNS AAF.
MISC: TRAN ALERT SVC AVBL 1300-2400Z++MON-FRI.
MISC: WX OBSN AUTOMATED AND AUGMENTED AS RQR H24. FCST AVBL 0700Z++ MON-0700Z++ SAT EXC HOL. WX OBSN VIS RSTD SW-NW DUE TO BLDG. REMOTE BRIEFING SVC AVBL 26 OWS, BARKSDALE AFB DSN 331-2651, C318-529-2651/2652/2653 OR HTTPS:26OWS.US.AF.MIL. WX OBSN AUTOMATED AND AUGMENTED AS RQR 24/7 OPS.
ALL TRAN ACFT 1 HR PPR. ALL RON ACFT, AND ARR/DEP ACFT WITH CODE ABOARD CTC BASE OPS DSN 558-8361/8433 C334-255-8361 1100Z++ MON-0800Z++ SAT.
RADAR: SEE TERMINAL FLIP FOR RADAR MINIMA.
TRAN ALERT: WHEN TWR/BASE OPS CLSD CTC REFUEL DSN 558-8639, C334-498-3735.
JASU: (MD-3)
FUEL: J8 AVCARD AND AIRCARDS ARE ACCEPTED. IDENTAPLATES FOR ACFT ARE NOT ACCEPTED.

Instrument Procedures

NOTE: All procedures below are presented as PDF files. If you need a reader for these files, you should download the free Adobe Reader.

NOT FOR NAVIGATION. Please procure official charts for flight.
FAA instrument procedures published for use from 16 June 2022 at 0901Z to 14 July 2022 at 0900z.

 
IAPs - Instrument Approach Procedures
ILS OR LOC RWY 06 **CHANGED**   download (136KB)
RNAV (GPS) RWY 06 **CHANGED**   download (131KB)
RNAV (GPS) RWY 36   download (108KB)
VOR RWY 06   download (118KB)
VOR RWY 24   download (118KB)
NDB RWY 06   download (120KB)
Radar Approach Procedures available   download (168KB)
 
Departure Procedures
CLIOS TWO   download (80KB)
HOUND TWO   download (78KB)
OPPTO TWO   download (87KB)
POPER ONE   download (93KB)
SKIPO TWO   download (81KB)
NOTE: Special Take-Off Minimums/Departure Procedures apply   download (189KB)

Other nearby airports with instrument procedures:

KLOR - Lowe Army Heliport (Fort Rucker) (5 nm N)
KHEY - Hanchey Army Heliport (Fort Rucker) (6 nm NE)
KEDN - Enterprise Municipal Airport (10 nm W)
71J - Ozark/Blackwell Field Airport (11 nm NE)
KDHN - Dothan Regional Airport (14 nm E)
33J - Geneva Municipal Airport (16 nm SW)
 
Loc | Ops | Rwys | IFR | FBO | Links
Com | Nav | Svcs | Stats | Notes
Area around KOZR (Cairns Army Airfield (Fort Rucker))
 
Road maps at: MapQuest Bing Google
 
Aerial photo
WARNING: Photo may not be current or correct
Aerial photo of KOZR (Cairns Army Airfield (Fort Rucker))
Do you have a better or more recent aerial photo of Cairns Army Airfield (Fort Rucker) that you would like to share? If so, please send us your photo.

 
Sectional chart

 
Airport diagram
Diagram of KOZR (Cairns Army Airfield (Fort Rucker))
Download PDF
of official airport diagram from the FAA

 
Airport distance calculator
Flying to Cairns Army Airfield (Fort Rucker)? Find the distance to fly.

From to KOZR

Sunrise and sunset
Times for 26-Jun-2022
 Local
(UTC-5)
 Zulu
(UTC)
Morning civil twilight05:1310:13
Sunrise05:4110:41
Sunset19:5000:50
Evening civil twilight20:1801:18

Current date and time
Zulu (UTC)  27-Jun-2022 03:57:25
Local (UTC-5)  26-Jun-2022 22:57:25
 
METAR
KOZR 270351Z AUTO 24003KT 10SM CLR 24/21 A3008 RMK AO2 SLP185
KLOR 
5nm NW 
270349Z AUTO 00000KT 10SM CLR 23/22 A3012 RMK AO2 SLP181
KHEY 
5nm NE 
270256Z AUTO 00000KT 10SM CLR 25/23 A3005 RMK AO2 SLP175 T02500234 52017
KSXS 
9nm NW 
270341Z AUTO 28003KT M M CLR 26/22 A3008 RMK AO2 SLP184 RVRNO PWINO $
KEDN 
10nm W 
270335Z AUTO 00000KT 10SM CLR 24/23 A3009 RMK AO2 T02420232
KDHN 
14nm E 
270353Z AUTO 26004KT 10SM CLR 26/23 A3011 RMK AO2 SLP191 T02560228 TSNO $
TAF
KDHN 
14nm E 
261740Z 2618/2718 09005KT P6SM SCT040 FM262300 VRB03KT P6SM SCT200
NOTAMs
Click for the latest NOTAMs
NOTAMs are issued by the DoD/FAA and will open in a separate window not controlled by AirNav.

 

 
 

Would you like to see your business listed on this page?

 If your business provides an interesting product or service to pilots, flight crews, aircraft, or users of the Cairns Army Airfield (Fort Rucker), you should consider listing it here.  To start the listing process, click on the button below
 
Add a business
 

Other Pages about Cairns Army Airfield (Fort Rucker)

www-rucker.army.mil
 
Update a link
 
Copyright © AirNav, LLC. All rights reserved. Privacy Policy  Contact